UPSVAC Airport Information Service

Hong Kong International Airport

ICAO: VHHH Country: Hong Kong
Latitude: 22.3089 Longitude: 113.915
Latest Arrival : UPSJUMP (ZHUB-VHHH) Latest Departure : SOX97 (A) (VHHH-KLAX)


WX CaptureLIVE
Data provided by noaa.gov | Fetched at 13:25:32

METAR : VHHH 251300Z 07006KT CAVOK 19/14 Q1017 NOSIG

TAF : VHHH 251100Z 2512/2618 VRB05KT 9000 FEW030 TX23/2606Z TN17/2523Z TEMPO 2512/2515 11010KT BECMG 2602/2604 27010KT TEMPO 2603/2609 4500 HZ BECMG 2611/2613 VRB05KT


Runway Data for VHHH
Data provided by openaviationdata.com

Runway ID Mag Var Hdg Length Elevation Surface ILS Freq ILS Id ILS Slope
07L -2 72° 12431 ft 28 ft Asphalt 111.1 IZSL 3
07R -2 72° 12431 ft 28 ft Asphalt 109.3 ISR 3
25L -2 252° 12431 ft 28 ft Asphalt 108.9 IFL 3
25R -2 252° 12431 ft 28 ft Asphalt 110.9 ITFR 3

Hong Kong International Airport, Hong Kong
Use only for reference purposes



Not for navigational purposes.